Time;durP1;ratioP1;P1;durP2;ratioP2;P2;SDS_P1;SDS_P2;PMS_P1;PMS_P2;Temp;Humidity;BMP_temperature;BMP_pressure;BME280_temperature;BME280_humidity;BME280_pressure;Samples;Min_cycle;Max_cycle;Signal;HPM_P1;HPM_P2
2023/02/02 00:00:06;;;;;;;;;;;;;;;;;;5043506;28;19956;-87
2023/02/02 00:02:31;;;;;;;;;;;;;;;;;;5050018;28;19928;-87
2023/02/02 00:04:57;;;;;;;;;;;;;;;4.94;100.00;67325.03;5049358;28;19927;-87
2023/02/02 00:07:23;;;;;;;;;;;;;;;4.91;100.00;67321.63;5050667;28;19928;-86
2023/02/02 00:09:48;;;;;;;;;;;;;;;4.85;100.00;67316.94;5046436;28;20394;-86
2023/02/02 00:12:13;;;;;;;;;;;;;;;4.79;100.00;67307.53;5049657;28;19928;-87
2023/02/02 00:14:38;;;;;;;;;;;;;;;4.71;100.00;67299.63;5050092;28;19925;-87
2023/02/02 00:17:04;;;;;;;;;;;;;;;;;;5047100;28;19955;-87
2023/02/02 00:19:30;;;;;;;;;;;;;;;4.62;100.00;67289.44;5047785;28;20524;-87
2023/02/02 00:21:55;;;;;;;;;;;;;;;;;;5044775;28;19920;-87
2023/02/02 00:24:20;;;;;;;;;;;;;;;;;;5049489;28;19942;-87
2023/02/02 00:26:45;;;;;;;;;;;;;;;;;;5048235;28;20349;-86
2023/02/02 00:29:19;;;;;;;;;;;;;;;4.52;100.00;67272.91;5049585;28;20653;-86
2023/02/02 00:31:44;;;;;;;;;;;;;;;4.51;100.00;67271.75;5050474;28;20029;-86
2023/02/02 00:34:10;;;;;;;;;;;;;;;4.50;100.00;67275.91;5047447;28;19933;-86
2023/02/02 00:36:35;;;;;;;;;;;;;;;4.49;100.00;67274.78;5049583;28;19979;-87
2023/02/02 00:39:00;;;;;;;;;;;;;;;;;;5049360;28;20228;-86
2023/02/02 00:41:26;;;;;;;;;;;;;;;;;;5049043;28;19929;-86
2023/02/02 00:46:37;;;;;;;;;;;;;;;4.55;100.00;67276.28;5045360;28;19931;-87
2023/02/02 00:49:03;;;;;;;;;;;;;;;4.59;100.00;67286.06;5049246;28;19924;-86
2023/02/02 00:51:28;;;;;;;;;;;;;;;4.60;100.00;67287.19;5047362;28;19947;-86
2023/02/02 00:53:53;;;;;;;;;;;;;;;4.62;100.00;67289.44;5050158;28;19925;-86
2023/02/02 00:56:19;;;;;;;;;;;;;;;4.60;100.00;67281.91;5048254;28;20402;-86
2023/02/02 00:58:44;;;;;;;;;;;;;;;4.58;100.00;67279.69;5052474;28;19921;-86
2023/02/02 01:01:16;;;;;;;;;;;;;;;4.57;100.00;67277.97;5047730;28;19929;-86
2023/02/02 01:03:42;;;;;;;;;;;;;;;4.58;100.00;67287.59;5052071;28;19936;-86
2023/02/02 01:06:07;;;;;;;;;;;;;;;;;;5050460;28;19925;-86
2023/02/02 01:08:32;;;;;;;;;;;;;;;4.57;100.00;67277.97;5051571;28;19921;-86
2023/02/02 01:10:58;;;;;;;;;;;;;;;4.57;100.00;67278.53;5053112;28;21097;-86
2023/02/02 01:13:23;;;;;;;;;;;;;;;;;;5050590;28;19932;-86
2023/02/02 01:15:48;;;;;;;;;;;;;;;;;;5046847;28;19948;-86
2023/02/02 01:18:14;;;;;;;;;;;;;;;4.56;100.00;67276.84;5046344;28;19929;-86
2023/02/02 01:20:39;;;;;;;;;;;;;;;4.57;100.00;67286.44;5052172;28;19925;-87
2023/02/02 01:23:04;;;;;;;;;;;;;;;;;;5051518;28;19928;-86
2023/02/02 01:25:31;;;;;;;;;;;;;;;4.64;100.00;67285.88;5050361;28;19921;-86
2023/02/02 01:27:56;;;;;;;;;;;;;;;;;;5051419;28;19943;-86
2023/02/02 01:30:21;;;;;;;;;;;;;;;4.70;100.00;67292.66;5050907;28;19921;-86
2023/02/02 01:32:47;;;;;;;;;;;;;;;4.71;100.00;67299.63;5047952;28;19932;-86
2023/02/02 01:35:12;;;;;;;;;;;;;;;4.74;100.00;67303.00;5048877;28;19928;-86
2023/02/02 01:37:37;;;;;;;;;;;;;;;;;;5049820;28;19990;-86
2023/02/02 01:40:03;;;;;;;;;;;;;;;4.78;100.00;67301.13;5049474;28;20159;-86
2023/02/02 01:42:28;;;;;;;;;;;;;;;4.83;100.00;67312.03;5046441;28;20477;-86
2023/02/02 01:45:12;;;;;;;;;;;;;;;4.86;100.00;67320.69;5047868;28;20051;-86
2023/02/02 01:47:37;;;;;;;;;;;;;;;;;;5048520;28;19931;-86
2023/02/02 01:50:03;;;;;;;;;;;;;;;4.94;100.00;67324.47;5051339;28;20003;-86
2023/02/02 01:52:28;;;;;;;;;;;;;;;;;;5047645;28;19927;-86
2023/02/02 01:54:56;;;;;;;;;;;;;;;5.01;100.00;67332.38;5050042;28;19929;-87
2023/02/02 01:57:33;;;;;;;;;;;;;;;5.05;100.00;67336.88;5048046;28;19921;-87
2023/02/02 01:59:58;;;;;;;;;;;;;;;;;;5042488;28;19952;-86
2023/02/02 02:02:24;;;;;;;;;;;;;;;5.13;100.00;67345.94;5048342;28;19928;-86
2023/02/02 02:04:50;;;;;;;;;;;;;;;5.17;100.00;67350.44;5053827;28;19920;-86
2023/02/02 02:07:15;;;;;;;;;;;;;;;5.17;100.00;67344.59;5051088;28;19956;-86
2023/02/02 02:09:40;;;;;;;;;;;;;;;5.20;100.00;67355.91;5045851;28;19921;-84
2023/02/02 02:12:14;;;;;;;;;;;;;;;5.24;100.00;67351.94;5054265;28;20413;-85
2023/02/02 02:17:29;;;;;;;;;;;;;;;5.27;100.00;67355.91;5052149;28;19974;-87
2023/02/02 02:28:47;;;;;;;;;;;;;;;5.35;100.00;67364.94;5017303;28;20309;-87
2023/02/02 02:31:39;;;;;;;;;;;;;;;5.36;100.00;67363.44;5049360;28;19925;-86
2023/02/02 02:34:16;;;;;;;;;;;;;;;5.39;100.00;67374.16;5027906;28;19928;-86
2023/02/02 02:36:58;;;;;;;;;;;;;;;5.41;100.00;67376.44;5061642;28;19985;-87
2023/02/02 02:39:26;;;;;;;;;;;;;;;5.40;100.00;67370.56;5045020;28;19943;-87
2023/02/02 02:41:54;;;;;;;;;;;;;;;5.40;100.00;67375.28;5051267;28;20015;-86
2023/02/02 02:44:19;;;;;;;;;;;;;;;;;;5053380;28;20377;-86
2023/02/02 02:46:45;;;;;;;;;;;;;;;;;;5051431;28;19970;-86
2023/02/02 02:49:11;;;;;;;;;;;;;;;5.41;100.00;67376.44;5048711;28;19928;-86
2023/02/02 02:51:43;;;;;;;;;;;;;;;5.42;100.00;67372.84;5051992;28;19963;-86
2023/02/02 02:54:09;;;;;;;;;;;;;;;5.41;100.00;67371.72;5049183;28;19972;-86
2023/02/02 02:56:48;;;;;;;;;;;;;;;5.43;100.00;67370.75;5051416;28;19924;-87
2023/02/02 02:59:13;;;;;;;;;;;;;;;5.43;100.00;67378.69;5051798;28;19992;-86
2023/02/02 03:01:46;;;;;;;;;;;;;;;5.42;100.00;67372.84;5047437;28;19971;-87
2023/02/02 03:04:17;;;;;;;;;;;;;;;5.44;100.00;67374.53;5073648;23;19994;-83
2023/02/02 03:06:53;;;;;;;;;;;;;;;5.44;100.00;67371.91;5048894;28;19924;-83
2023/02/02 03:09:22;;;;;;;;;;;;;;;5.44;100.00;67379.81;5045930;28;19921;-83
2023/02/02 03:11:47;;;;;;;;;;;;;;;5.45;100.00;67380.38;5050906;28;19921;-83
2023/02/02 03:14:12;;;;;;;;;;;;;;;5.45;100.00;67380.38;5041442;28;20301;-83
2023/02/02 03:16:37;;;;;;;;;;;;;;;;;;5025671;28;20023;-82
2023/02/02 03:19:03;;;;;;;;;;;;;;;;;;5025459;28;20337;-83
2023/02/02 03:21:28;;;;;;;;;;;;;;;5.46;100.00;67376.78;5025461;28;20390;-83
2023/02/02 03:23:54;;;;;;;;;;;;;;;;;;5028393;28;19921;-83
2023/02/02 03:26:19;;;;;;;;;;;;;;;;;;5041480;28;19925;-83
2023/02/02 03:28:44;;;;;;;;;;;;;;;5.49;100.00;67379.63;5027671;28;19927;-82
2023/02/02 03:31:09;;;;;;;;;;;;;;;5.49;100.00;67385.47;5026175;28;19929;-83
2023/02/02 03:33:35;;;;;;;;;;;;;;;5.48;100.00;67384.34;5010777;28;19925;-83
2023/02/02 03:36:01;;;;;;;;;;;;;;;5.47;100.00;67383.22;5024681;28;20012;-83
2023/02/02 03:38:26;;;;;;;;;;;;;;;;;;5023172;28;19939;-84
2023/02/02 03:40:51;;;;;;;;;;;;;;;5.48;100.00;67378.50;5023036;28;19925;-84
2023/02/02 03:43:20;;;;;;;;;;;;;;;5.49;100.00;67379.63;5021703;28;19926;-84
2023/02/02 03:45:45;;;;;;;;;;;;;;;;;;5023300;28;19922;-84
2023/02/02 03:48:10;;;;;;;;;;;;;;;;;;5025422;28;19936;-84
2023/02/02 03:50:36;;;;;;;;;;;;;;;5.47;100.00;67383.22;5025949;28;19922;-84
2023/02/02 03:53:01;;;;;;;;;;;;;;;5.46;100.00;67376.22;5026223;28;19929;-82
2023/02/02 03:55:26;;;;;;;;;;;;;;;;;;5026412;28;20015;-83
2023/02/02 03:57:52;;;;;;;;;;;;;;;;;;5032080;28;20012;-82
2023/02/02 04:00:17;;;;;;;;;;;;;;;5.43;100.00;67373.41;5029274;28;19920;-84
2023/02/02 04:02:42;;;;;;;;;;;;;;;5.41;100.00;67371.72;5029465;28;19995;-83
2023/02/02 04:05:07;;;;;;;;;;;;;;;;;;5031466;28;19925;-83
2023/02/02 04:07:32;;;;;;;;;;;;;;;;;;5010804;28;20012;-83
2023/02/02 04:09:58;;;;;;;;;;;;;;;5.39;100.00;67374.16;5023463;28;19921;-82
2023/02/02 04:12:23;;;;;;;;;;;;;;;;;;5027158;28;19925;-84
2023/02/02 04:14:48;;;;;;;;;;;;;;;5.38;100.00;67373.03;5025605;28;19925;-83
2023/02/02 04:17:13;;;;;;;;;;;;;;;5.36;100.00;67366.06;5025125;28;19921;-84
2023/02/02 04:19:39;;;;;;;;;;;;;;;5.34;100.00;67369.06;5029732;28;19970;-83
2023/02/02 04:22:04;;;;;;;;;;;;;;;;;;5023929;28;20400;-83
2023/02/02 04:24:29;;;;;;;;;;;;;;;;;;5024341;28;19922;-83
2023/02/02 04:26:54;;;;;;;;;;;;;;;;;;5027307;28;19924;-82
2023/02/02 04:29:19;;;;;;;;;;;;;;;;;;5026421;28;19928;-83
2023/02/02 04:31:44;;;;;;;;;;;;;;;5.33;100.00;67359.47;5022765;28;19922;-82
2023/02/02 04:34:09;;;;;;;;;;;;;;;5.32;100.00;67360.97;5029733;28;20018;-83
2023/02/02 04:36:35;;;;;;;;;;;;;;;5.32;100.00;67360.97;5020513;28;19928;-83
2023/02/02 04:39:00;;;;;;;;;;;;;;;;;;5020221;28;19929;-83
2023/02/02 04:41:25;;;;;;;;;;;;;;;;;;5023544;28;19921;-83
2023/02/02 04:43:50;;;;;;;;;;;;;;;5.33;100.00;67362.13;5027817;28;20206;-82
2023/02/02 04:46:15;;;;;;;;;;;;;;;;;;5028603;28;19927;-83
2023/02/02 04:48:41;;;;;;;;;;;;;;;;;;5030276;28;19984;-82
2023/02/02 04:51:06;;;;;;;;;;;;;;;;;;5024309;28;20215;-83
2023/02/02 04:53:31;;;;;;;;;;;;;;;5.33;100.00;67362.13;5029336;28;19948;-82
2023/02/02 04:55:57;;;;;;;;;;;;;;;5.36;100.00;67370.78;5023138;28;19936;-83
2023/02/02 04:58:23;;;;;;;;;;;;;;;;;;5028564;28;20377;-83
2023/02/02 05:00:48;;;;;;;;;;;;;;;5.37;100.00;67366.63;5023397;28;19972;-82
2023/02/02 05:03:13;;;;;;;;;;;;;;;5.38;100.00;67365.09;5010123;28;19921;-83
2023/02/02 05:05:38;;;;;;;;;;;;;;;;;;5041375;28;19947;-81
2023/02/02 05:08:03;;;;;;;;;;;;;;;;;;5027979;28;20006;-83
2023/02/02 05:10:29;;;;;;;;;;;;;;;;;;5027789;28;20439;-83
2023/02/02 05:12:54;;;;;;;;;;;;;;;;;;5039961;28;19936;-83
2023/02/02 05:15:20;;;;;;;;;;;;;;;5.46;100.00;67376.22;5029174;28;19953;-83
2023/02/02 05:17:45;;;;;;;;;;;;;;;;;;5028797;28;19917;-83
2023/02/02 05:20:10;;;;;;;;;;;;;;;5.49;100.00;67379.63;5021847;28;19992;-83
2023/02/02 05:22:35;;;;;;;;;;;;;;;;;;5021377;28;19956;-83
2023/02/02 05:25:01;;;;;;;;;;;;;;;5.53;100.00;67392.63;5017692;28;19968;-83
2023/02/02 05:27:26;;;;;;;;;;;;;;;5.54;100.00;67385.84;5026416;28;20024;-83
2023/02/02 05:29:51;;;;;;;;;;;;;;;5.58;100.00;67389.78;5027564;28;19928;-83
2023/02/02 05:32:16;;;;;;;;;;;;;;;5.60;100.00;67397.31;5029855;28;20401;-83
2023/02/02 05:34:42;;;;;;;;;;;;;;;;;;5024385;28;19925;-83
2023/02/02 05:37:07;;;;;;;;;;;;;;;;;;5026955;28;19924;-83
2023/02/02 05:39:32;;;;;;;;;;;;;;;5.65;100.00;67402.97;5021792;28;19921;-83
2023/02/02 05:41:57;;;;;;;;;;;;;;;;;;5021263;28;19926;-84
2023/02/02 05:44:22;;;;;;;;;;;;;;;5.68;100.00;67398.44;5023604;28;19921;-83
2023/02/02 05:46:48;;;;;;;;;;;;;;;;;;5019037;28;20010;-83
2023/02/02 05:49:13;;;;;;;;;;;;;;;5.72;100.00;67410.88;5027729;28;19937;-83
2023/02/02 05:51:43;;;;;;;;;;;;;;;5.73;100.00;67406.19;5025332;28;19943;-82
2023/02/02 05:54:08;;;;;;;;;;;;;;;;;;5026549;28;19968;-83
2023/02/02 05:56:33;;;;;;;;;;;;;;;;;;5002685;28;20010;-83
2023/02/02 05:58:59;;;;;;;;;;;;;;;5.76;100.00;67409.56;5018342;28;19922;-83
2023/02/02 06:01:24;;;;;;;;;;;;;;;5.75;100.00;67409.00;5022012;28;19932;-82
2023/02/02 06:03:49;;;;;;;;;;;;;;;5.75;100.00;67408.44;5022934;28;20578;-83
2023/02/02 06:06:15;;;;;;;;;;;;;;;;;;5019733;28;19922;-83
2023/02/02 06:08:40;;;;;;;;;;;;;;;;;;5028887;28;20008;-83
2023/02/02 06:11:05;;;;;;;;;;;;;;;;;;5024469;28;19929;-82
2023/02/02 06:13:31;;;;;;;;;;;;;;;5.76;100.00;67409.56;5023324;28;19925;-83
2023/02/02 06:15:56;;;;;;;;;;;;;;;5.76;100.00;67409.56;5030086;28;20032;-83
2023/02/02 06:18:21;;;;;;;;;;;;;;;;;;5021855;28;19929;-83
2023/02/02 06:20:46;;;;;;;;;;;;;;;;;;5037346;28;19928;-83
2023/02/02 06:23:11;;;;;;;;;;;;;;;5.76;100.00;67418.06;5038768;28;20279;-83
2023/02/02 06:25:37;;;;;;;;;;;;;;;5.77;100.00;67415.97;5031408;28;20220;-83
2023/02/02 06:28:02;;;;;;;;;;;;;;;5.77;100.00;67410.69;5030305;28;20313;-83
2023/02/02 06:30:27;;;;;;;;;;;;;;;;;;5027803;28;19917;-83
2023/02/02 06:32:52;;;;;;;;;;;;;;;5.77;100.00;67416.53;5008576;28;20309;-82
2023/02/02 06:35:18;;;;;;;;;;;;;;;5.78;100.00;67409.75;5011680;28;20409;-83
2023/02/02 06:37:43;;;;;;;;;;;;;;;5.78;100.00;67417.69;5014924;28;20293;-83
2023/02/02 06:40:08;;;;;;;;;;;;;;;5.79;100.00;67412.97;5023507;28;19918;-82
2023/02/02 06:42:34;;;;;;;;;;;;;;;;;;5026728;28;19979;-83
2023/02/02 06:45:00;;;;;;;;;;;;;;;5.80;100.00;67414.09;5023336;28;19960;-81
2023/02/02 06:47:25;;;;;;;;;;;;;;;5.81;100.00;67415.78;5025838;28;19952;-83
2023/02/02 06:49:50;;;;;;;;;;;;;;;5.81;100.00;67415.78;5017759;28;19980;-83
2023/02/02 06:52:15;;;;;;;;;;;;;;;;;;5013732;28;19924;-83
2023/02/02 06:54:40;;;;;;;;;;;;;;;;;;5022928;28;19924;-84
2023/02/02 06:57:06;;;;;;;;;;;;;;;;;;5022276;28;19917;-83
2023/02/02 06:59:31;;;;;;;;;;;;;;;5.83;100.00;67423.31;5023871;28;19956;-84
2023/02/02 07:01:56;;;;;;;;;;;;;;;;;;5030665;28;20595;-83
2023/02/02 07:04:21;;;;;;;;;;;;;;;;;;5025287;28;19921;-82
2023/02/02 07:06:46;;;;;;;;;;;;;;;5.83;100.00;67418.03;5007260;28;19944;-83
2023/02/02 07:09:12;;;;;;;;;;;;;;;5.84;100.00;67423.88;5040880;28;20008;-83
2023/02/02 07:11:37;;;;;;;;;;;;;;;5.87;100.00;67422.00;5008958;28;19952;-83
2023/02/02 07:14:02;;;;;;;;;;;;;;;;;;5027358;28;20378;-82
2023/02/02 07:16:27;;;;;;;;;;;;;;;5.85;100.00;67419.75;5025568;28;20019;-83
2023/02/02 07:18:52;;;;;;;;;;;;;;;;;;5021831;28;19929;-83
2023/02/02 07:21:18;;;;;;;;;;;;;;;;;;5019549;28;19921;-82
2023/02/02 07:23:43;;;;;;;;;;;;;;;;;;5018896;28;20321;-82
2023/02/02 07:26:09;;;;;;;;;;;;;;;5.86;100.00;67426.16;5022948;28;19929;-82
2023/02/02 07:28:35;;;;;;;;;;;;;;;5.87;100.00;67427.28;5021077;28;20075;-82
2023/02/02 07:31:00;;;;;;;;;;;;;;;;;;5029319;28;20568;-83
2023/02/02 07:33:25;;;;;;;;;;;;;;;;;;5007969;28;19921;-83
2023/02/02 07:35:50;;;;;;;;;;;;;;;5.88;100.00;67428.41;5023532;28;19925;-82
2023/02/02 07:38:16;;;;;;;;;;;;;;;5.89;100.00;67424.81;5016667;28;20020;-82
2023/02/02 07:40:41;;;;;;;;;;;;;;;;;;5009810;28;19925;-82
2023/02/02 07:43:06;;;;;;;;;;;;;;;5.92;100.00;67432.91;5020223;28;19928;-82
2023/02/02 07:45:32;;;;;;;;;;;;;;;5.92;100.00;67425.00;5000902;28;20020;-83
2023/02/02 07:47:57;;;;;;;;;;;;;;;5.94;100.00;67429.38;5019626;28;19921;-82
2023/02/02 07:50:24;;;;;;;;;;;;;;;5.94;100.00;67429.94;5020362;28;19975;-83
2023/02/02 07:52:49;;;;;;;;;;;;;;;5.95;100.00;67431.06;5017888;28;20609;-82
2023/02/02 07:55:14;;;;;;;;;;;;;;;;;;5023472;28;19952;-82
2023/02/02 07:57:39;;;;;;;;;;;;;;;5.95;100.00;67431.06;5022302;28;19929;-83
2023/02/02 08:00:05;;;;;;;;;;;;;;;5.96;100.00;67431.63;5004138;28;19933;-82
2023/02/02 08:02:30;;;;;;;;;;;;;;;;;;5022940;28;19936;-82
2023/02/02 08:04:55;;;;;;;;;;;;;;;5.97;100.00;67432.75;5016717;28;19929;-82
2023/02/02 08:07:23;;;;;;;;;;;;;;;5.97;100.00;67438.59;5022103;28;19925;-82
2023/02/02 08:09:49;;;;;;;;;;;;;;;6.00;100.00;67441.44;5021382;28;19921;-82
2023/02/02 08:12:14;;;;;;;;;;;;;;;;;;5019652;28;20030;-82
2023/02/02 08:14:39;;;;;;;;;;;;;;;6.00;100.00;67436.16;5019079;28;19932;-82
2023/02/02 08:17:05;;;;;;;;;;;;;;;6.00;100.00;67442.00;5006052;28;19925;-82
2023/02/02 08:19:30;;;;;;;;;;;;;;;6.02;100.00;67438.97;5024570;28;19925;-82
2023/02/02 08:21:55;;;;;;;;;;;;;;;6.02;100.00;67436.34;5019845;28;19925;-83
2023/02/02 08:24:20;;;;;;;;;;;;;;;;;;5016398;28;19925;-83
2023/02/02 08:26:45;;;;;;;;;;;;;;;;;;5015139;28;20437;-82
2023/02/02 08:29:11;;;;;;;;;;;;;;;6.06;100.00;67443.50;5022687;28;20360;-82
2023/02/02 08:31:36;;;;;;;;;;;;;;;;;;5022376;28;20409;-83
2023/02/02 08:34:01;;;;;;;;;;;;;;;;;;5025039;28;19931;-82
2023/02/02 08:36:27;;;;;;;;;;;;;;;6.07;100.00;67444.63;5018767;28;19950;-82
2023/02/02 08:38:53;;;;;;;;;;;;;;;6.08;100.00;67445.19;5021022;28;19922;-83
2023/02/02 08:41:19;;;;;;;;;;;;;;;6.08;100.00;67451.03;5033135;28;20175;-83
2023/02/02 08:43:44;;;;;;;;;;;;;;;;;;5030573;28;20440;-82
2023/02/02 08:46:12;;;;;;;;;;;;;;;6.09;100.00;67446.88;5017067;28;21900;-83
2023/02/02 08:48:38;;;;;;;;;;;;;;;6.09;100.00;67446.88;5022146;28;19922;-82
2023/02/02 08:51:04;;;;;;;;;;;;;;;6.10;100.00;67448.03;5021549;28;20614;-82
2023/02/02 08:53:29;;;;;;;;;;;;;;;;;;5021359;28;20300;-83
2023/02/02 08:55:54;;;;;;;;;;;;;;;;;;5018295;28;19987;-82
2023/02/02 08:58:19;;;;;;;;;;;;;;;6.12;100.00;67449.16;5020130;28;19928;-83
2023/02/02 09:00:44;;;;;;;;;;;;;;;6.14;100.00;67451.97;5022923;28;19921;-82
2023/02/02 09:03:09;;;;;;;;;;;;;;;6.14;100.00;67451.41;5003666;28;20004;-83
2023/02/02 09:05:37;;;;;;;;;;;;;;;;;;5018550;28;19961;-82
2023/02/02 09:08:02;;;;;;;;;;;;;;;;;;5017756;28;19917;-82
2023/02/02 09:10:30;;;;;;;;;;;;;;;;;;5020304;28;19921;-83
2023/02/02 09:12:55;;;;;;;;;;;;;;;6.15;100.00;67449.88;5018183;28;19930;-82
2023/02/02 09:15:22;;;;;;;;;;;;;;;6.15;100.00;67453.09;5031516;28;19928;-82
2023/02/02 09:17:47;;;;;;;;;;;;;;;6.17;100.00;67454.81;5021233;28;20569;-83
2023/02/02 09:20:12;;;;;;;;;;;;;;;6.17;100.00;67455.38;5023068;28;19952;-83
2023/02/02 09:22:38;;;;;;;;;;;;;;;;;;5019202;28;19929;-81
2023/02/02 09:25:03;;;;;;;;;;;;;;;;;;5021940;28;20481;-82
2023/02/02 09:27:28;;;;;;;;;;;;;;;6.18;100.00;67456.47;5014639;28;20004;-82
2023/02/02 09:29:53;;;;;;;;;;;;;;;6.21;100.00;67457.22;5018888;28;19943;-83
2023/02/02 09:32:18;;;;;;;;;;;;;;;6.23;100.00;67459.50;5021299;28;19942;-83
2023/02/02 09:34:43;;;;;;;;;;;;;;;;;;5020031;28;19925;-81
2023/02/02 09:37:09;;;;;;;;;;;;;;;6.24;100.00;67462.69;5013644;28;19922;-83
2023/02/02 09:39:34;;;;;;;;;;;;;;;6.26;100.00;67470.25;5014634;28;19921;-82
2023/02/02 09:42:05;;;;;;;;;;;;;;;6.28;100.00;67467.25;5013830;28;20302;-82
2023/02/02 09:44:49;;;;;;;;;;;;;;;6.28;100.00;67467.81;5018964;28;20485;-83
2023/02/02 09:47:18;;;;;;;;;;;;;;;6.29;100.00;67473.66;5027087;28;19961;-83
2023/02/02 09:50:02;;;;;;;;;;;;;;;6.29;100.00;67468.38;5028044;28;20004;-83
2023/02/02 09:52:27;;;;;;;;;;;;;;;;;;5023225;28;19990;-83
2023/02/02 09:54:52;;;;;;;;;;;;;;;;;;5027874;28;19925;-83
2023/02/02 09:57:18;;;;;;;;;;;;;;;;;;5023868;28;19984;-83
2023/02/02 09:59:45;;;;;;;;;;;;;;;6.34;100.00;67474.03;5029076;28;19928;-83
2023/02/02 10:02:10;;;;;;;;;;;;;;;;;;5028982;28;19937;-83
2023/02/02 10:04:35;;;;;;;;;;;;;;;;;;5023232;28;20124;-83
2023/02/02 10:07:00;;;;;;;;;;;;;;;;;;5027890;28;20521;-83
2023/02/02 10:09:32;;;;;;;;;;;;;;;6.37;100.00;67477.41;5031040;28;20023;-83
2023/02/02 10:12:12;;;;;;;;;;;;;;;6.39;100.00;67476.44;5029573;28;19921;-83
2023/02/02 10:14:37;;;;;;;;;;;;;;;;;;5030130;28;19932;-83
2023/02/02 10:17:21;;;;;;;;;;;;;;;6.39;100.00;67477.03;5034959;28;19921;-83
2023/02/02 10:19:49;;;;;;;;;;;;;;;6.40;100.00;67485.53;4996903;28;19928;-83
2023/02/02 10:22:19;;;;;;;;;;;;;;;6.40;100.00;67480.25;5028449;28;20336;-83
2023/02/02 10:24:44;;;;;;;;;;;;;;;6.40;100.00;67480.25;5020938;28;19925;-83
2023/02/02 10:27:14;;;;;;;;;;;;;;;6.41;100.00;67486.66;5028970;28;20303;-83
2023/02/02 10:29:51;;;;;;;;;;;;;;;6.41;100.00;67481.94;5033167;28;19975;-83
2023/02/02 10:32:21;;;;;;;;;;;;;;;;;;5027702;28;19921;-83
2023/02/02 10:34:52;;;;;;;;;;;;;;;6.46;100.00;67487.59;5030781;28;19932;-83
2023/02/02 10:37:18;;;;;;;;;;;;;;;6.45;100.00;67486.47;5026405;28;19921;-83
2023/02/02 10:39:58;;;;;;;;;;;;;;;6.47;100.00;67488.16;5026119;28;19921;-83
2023/02/02 10:42:36;;;;;;;;;;;;;;;6.47;100.00;67486.09;5023190;28;20041;-83
2023/02/02 10:45:07;;;;;;;;;;;;;;;6.47;100.00;67494.00;5026407;28;19954;-82
2023/02/02 10:47:33;;;;;;;;;;;;;;;6.49;100.00;67487.78;5030084;28;19921;-83
2023/02/02 10:49:58;;;;;;;;;;;;;;;6.50;100.00;67491.53;5027646;28;19929;-83
2023/02/02 10:52:28;;;;;;;;;;;;;;;6.50;100.00;67491.53;5029697;28;19937;-83
2023/02/02 10:54:53;;;;;;;;;;;;;;;;;;5030780;28;20000;-83
2023/02/02 10:57:18;;;;;;;;;;;;;;;;;;5026612;28;19952;-83
2023/02/02 10:59:45;;;;;;;;;;;;;;;;;;5029116;28;19929;-83
2023/02/02 11:02:10;;;;;;;;;;;;;;;6.50;100.00;67497.41;5029022;28;20164;-83
2023/02/02 11:07:19;;;;;;;;;;;;;;;6.55;100.00;67495.13;5030432;28;19928;-83
2023/02/02 11:09:46;;;;;;;;;;;;;;;6.55;100.00;67497.75;5026664;28;20017;-83
2023/02/02 11:12:34;;;;;;;;;;;;;;;6.54;100.00;67496.63;5034718;28;19991;-83
2023/02/02 11:15:00;;;;;;;;;;;;;;;6.57;100.00;67498.91;5027414;28;19940;-82
2023/02/02 11:17:26;;;;;;;;;;;;;;;6.54;100.00;67496.63;5034058;28;19921;-83
2023/02/02 11:19:54;;;;;;;;;;;;;;;6.55;100.00;67497.19;5026231;28;19925;-83
2023/02/02 11:22:28;;;;;;;;;;;;;;;6.55;100.00;67495.13;5028956;28;20019;-83
2023/02/02 11:24:54;;;;;;;;;;;;;;;6.57;100.00;67504.19;5030623;28;19936;-83
2023/02/02 11:27:29;;;;;;;;;;;;;;;6.57;100.00;67498.91;5043972;28;19930;-83
2023/02/02 11:29:54;;;;;;;;;;;;;;;;;;5028441;28;19929;-83
2023/02/02 11:32:27;;;;;;;;;;;;;;;6.54;100.00;67496.63;5033365;28;19928;-83
2023/02/02 11:34:52;;;;;;;;;;;;;;;;;;5033457;28;19945;-83
2023/02/02 11:37:20;;;;;;;;;;;;;;;6.57;100.00;67499.47;5038177;28;19917;-83
2023/02/02 11:39:46;;;;;;;;;;;;;;;6.57;100.00;67504.75;5036774;28;19925;-83
2023/02/02 11:42:19;;;;;;;;;;;;;;;6.55;100.00;67497.19;5032822;28;19925;-83
2023/02/02 11:44:46;;;;;;;;;;;;;;;6.55;100.00;67495.13;5010215;28;19951;-83
2023/02/02 11:47:11;;;;;;;;;;;;;;;;;;5035125;28;20460;-83
2023/02/02 11:49:37;;;;;;;;;;;;;;;;;;5033501;28;20534;-83
2023/02/02 11:52:04;;;;;;;;;;;;;;;6.54;100.00;67496.06;5037512;28;20410;-83
2023/02/02 11:54:30;;;;;;;;;;;;;;;;;;5037378;28;20013;-83
2023/02/02 11:56:58;;;;;;;;;;;;;;;6.55;100.00;67495.13;5036631;28;19948;-83
2023/02/02 11:59:32;;;;;;;;;;;;;;;6.55;100.00;67497.19;5034131;28;19921;-83
2023/02/02 12:02:19;;;;;;;;;;;;;;;6.56;100.00;67498.34;5033775;28;20313;-83
2023/02/02 12:04:44;;;;;;;;;;;;;;;;;;5034853;28;20340;-83
2023/02/02 12:07:30;;;;;;;;;;;;;;;6.55;100.00;67497.75;5037588;28;20019;-83
2023/02/02 12:09:58;;;;;;;;;;;;;;;6.57;100.00;67499.47;5034757;28;20424;-83
2023/02/02 12:12:23;;;;;;;;;;;;;;;;;;5052616;28;19918;-83
2023/02/02 12:14:48;;;;;;;;;;;;;;;;;;5037670;28;20004;-83
2023/02/02 12:17:33;;;;;;;;;;;;;;;6.55;100.00;67497.75;5036728;28;19940;-83
2023/02/02 12:19:59;;;;;;;;;;;;;;;;;;5027682;28;19936;-83
2023/02/02 12:22:32;;;;;;;;;;;;;;;6.58;100.00;67500.59;5037230;28;19919;-83
2023/02/02 12:25:00;;;;;;;;;;;;;;;6.58;100.00;67500.59;5037682;28;19917;-83
2023/02/02 12:27:32;;;;;;;;;;;;;;;6.59;100.00;67506.44;5036711;28;19918;-83
2023/02/02 12:30:21;;;;;;;;;;;;;;;6.60;100.00;67502.28;5037437;28;20016;-83
2023/02/02 12:32:46;;;;;;;;;;;;;;;6.59;100.00;67499.09;5030622;28;19917;-83
2023/02/02 12:35:11;;;;;;;;;;;;;;;;;;5036998;28;19927;-84
2023/02/02 12:37:42;;;;;;;;;;;;;;;6.59;100.00;67501.16;5050714;28;19917;-84
2023/02/02 12:40:07;;;;;;;;;;;;;;;;;;5027460;28;20036;-84
2023/02/02 12:42:38;;;;;;;;;;;;;;;6.60;100.00;67502.28;5036310;28;19917;-84
2023/02/02 12:45:09;;;;;;;;;;;;;;;6.59;100.00;67501.16;5031792;28;19917;-83
2023/02/02 12:47:53;;;;;;;;;;;;;;;6.59;100.00;67498.50;5035232;28;20341;-83
2023/02/02 12:50:26;;;;;;;;;;;;;;;6.60;100.00;67507.59;5027563;28;20497;-83
2023/02/02 12:52:52;;;;;;;;;;;;;;;6.60;100.00;67502.28;5031468;28;19917;-83
2023/02/02 12:55:17;;;;;;;;;;;;;;;6.61;100.00;67503.41;5029703;28;19952;-83
2023/02/02 12:57:49;;;;;;;;;;;;;;;6.61;100.00;67503.97;5048198;28;20309;-84
2023/02/02 13:00:14;;;;;;;;;;;;;;;;;;5050102;28;20577;-84
2023/02/02 13:02:51;;;;;;;;;;;;;;;6.61;100.00;67503.41;5033543;28;19944;-83
2023/02/02 13:05:23;;;;;;;;;;;;;;;6.59;100.00;67501.72;5018224;28;20384;-83
2023/02/02 13:07:51;;;;;;;;;;;;;;;6.60;100.00;67507.59;5034106;28;20002;-83
2023/02/02 13:10:19;;;;;;;;;;;;;;;6.61;100.00;67498.13;5032834;28;19967;-83
2023/02/02 13:13:07;;;;;;;;;;;;;;;6.60;100.00;67500.22;5021761;28;19960;-83
2023/02/02 13:15:36;;;;;;;;;;;;;;;6.61;100.00;67503.41;5049148;28;19929;-83
2023/02/02 13:18:01;;;;;;;;;;;;;;;;;;5036113;28;19940;-83
2023/02/02 13:20:26;;;;;;;;;;;;;;;;;;5041109;28;19921;-83
2023/02/02 13:22:55;;;;;;;;;;;;;;;6.60;100.00;67502.28;5028395;28;19925;-83
2023/02/02 13:25:29;;;;;;;;;;;;;;;6.62;100.00;67501.91;5025691;28;20448;-83
2023/02/02 13:27:56;;;;;;;;;;;;;;;6.61;100.00;67500.78;5028401;28;19979;-83
2023/02/02 13:30:33;;;;;;;;;;;;;;;6.61;100.00;67500.78;5031392;28;20152;-83
2023/02/02 13:32:59;;;;;;;;;;;;;;;;;;5032067;28;19925;-83
2023/02/02 13:35:24;;;;;;;;;;;;;;;;;;5031537;28;19967;-83
2023/02/02 13:38:09;;;;;;;;;;;;;;;6.61;100.00;67503.41;5026645;28;20383;-83
2023/02/02 13:40:38;;;;;;;;;;;;;;;6.58;100.00;67500.59;5028335;28;19929;-83
2023/02/02 13:43:22;;;;;;;;;;;;;;;6.60;100.00;67502.28;5032933;28;19977;-83
2023/02/02 13:45:50;;;;;;;;;;;;;;;6.58;100.00;67497.38;5020769;28;19917;-83
2023/02/02 13:48:24;;;;;;;;;;;;;;;6.57;100.00;67499.47;5024736;28;19924;-83
2023/02/02 13:51:07;;;;;;;;;;;;;;;6.57;100.00;67499.47;5027639;28;19979;-83
2023/02/02 13:53:52;;;;;;;;;;;;;;;6.56;100.00;67495.69;5028912;28;20377;-83
2023/02/02 13:56:23;;;;;;;;;;;;;;;6.54;100.00;67501.91;5028779;28;19972;-83
2023/02/02 13:58:48;;;;;;;;;;;;;;;6.54;100.00;67496.63;5026629;28;20000;-83
2023/02/02 14:01:13;;;;;;;;;;;;;;;;;;5033731;28;19944;-83
2023/02/02 14:03:43;;;;;;;;;;;;;;;6.52;100.00;67494.38;5031394;28;19968;-83
2023/02/02 14:06:13;;;;;;;;;;;;;;;6.52;100.00;67499.09;5025759;28;19975;-83
2023/02/02 14:08:44;;;;;;;;;;;;;;;6.51;100.00;67492.69;5028749;28;19924;-83
2023/02/02 14:11:15;;;;;;;;;;;;;;;6.50;100.00;67492.13;5017857;28;20554;-83